KDRA/DRA METAR and TAF weather

Enter ICAO airport designator
Station Type Date Time Source
KDRA METAR 2020/08/14 15:53 UTC NOAA

KDRA 141553Z AUTO 00000KT 10SM CLR 33/04 A3008 RMK AO2 SLP125 T03280039


Station Type Date Time Source
KDRA Decoded METAR 2020/08/14 15:53 UTC NOAA

DESERT ROCK AIRPORT, NV, United States (KDRA) 36-38N 116-02W 1006M
Aug 14, 2020 - 11:53 AM EDT / 2020.08.14 1553 UTC
Wind: Calm:0
Visibility: 10 mile(s):0
Sky conditions: clear
Temperature: 91.0 F (32.8 C)
Dew Point: 39.0 F (3.9 C)
Relative Humidity: 16%
Pressure (altimeter): 30.08 in. Hg (1018 hPa)
ob: KDRA 141553Z AUTO 00000KT 10SM CLR 33/04 A3008 RMK AO2 SLP125 T03280039
cycle: 16

Station Type Date Time Source
KDRA TAF 2011/12/07 06:36 UTC NOAA

TAF KDRA 070532Z 0706/0806 VRB04KT P6SM SKC

Example: see airport list